sensor_id;sensor_type;location;lat;lon;timestamp;temperature;humidity
52513;DHT22;38422;53.172;6.974;2022-07-10T00:00:26;16.50;99.90
52513;DHT22;38422;53.172;6.974;2022-07-10T00:02:52;16.50;99.90
52513;DHT22;38422;53.172;6.974;2022-07-10T00:05:18;16.50;99.90
52513;DHT22;38422;53.172;6.974;2022-07-10T00:07:44;16.50;99.90
52513;DHT22;38422;53.172;6.974;2022-07-10T00:10:10;16.50;99.80
52513;DHT22;38422;53.172;6.974;2022-07-10T00:12:36;16.50;99.90
52513;DHT22;38422;53.172;6.974;2022-07-10T00:15:05;16.50;99.70
52513;DHT22;38422;53.172;6.974;2022-07-10T00:17:32;16.50;99.60
52513;DHT22;38422;53.172;6.974;2022-07-10T00:20:02;16.50;99.60
52513;DHT22;38422;53.172;6.974;2022-07-10T00:22:27;16.50;99.60
52513;DHT22;38422;53.172;6.974;2022-07-10T00:24:53;16.50;99.60
52513;DHT22;38422;53.172;6.974;2022-07-10T00:27:19;16.50;99.60
52513;DHT22;38422;53.172;6.974;2022-07-10T00:29:45;16.50;99.50
52513;DHT22;38422;53.172;6.974;2022-07-10T00:32:11;16.50;99.40
52513;DHT22;38422;53.172;6.974;2022-07-10T00:34:37;16.50;99.40
52513;DHT22;38422;53.172;6.974;2022-07-10T00:37:03;16.50;99.50
52513;DHT22;38422;53.172;6.974;2022-07-10T00:39:30;16.50;99.70
52513;DHT22;38422;53.172;6.974;2022-07-10T00:42:14;16.50;99.90
52513;DHT22;38422;53.172;6.974;2022-07-10T00:44:41;16.50;99.90
52513;DHT22;38422;53.172;6.974;2022-07-10T00:47:08;16.50;99.90
52513;DHT22;38422;53.172;6.974;2022-07-10T00:49:36;16.50;99.90
52513;DHT22;38422;53.172;6.974;2022-07-10T00:52:04;16.50;99.90
52513;DHT22;38422;53.172;6.974;2022-07-10T00:54:31;16.40;99.90
52513;DHT22;38422;53.172;6.974;2022-07-10T00:56:57;16.40;99.90
52513;DHT22;38422;53.172;6.974;2022-07-10T00:59:24;16.40;99.90
52513;DHT22;38422;53.172;6.974;2022-07-10T01:01:51;16.40;99.90
52513;DHT22;38422;53.172;6.974;2022-07-10T01:04:17;16.40;99.90
52513;DHT22;38422;53.172;6.974;2022-07-10T01:06:43;16.30;99.90
52513;DHT22;38422;53.172;6.974;2022-07-10T01:09:09;16.30;99.90
52513;DHT22;38422;53.172;6.974;2022-07-10T01:11:35;16.30;99.90
52513;DHT22;38422;53.172;6.974;2022-07-10T01:14:02;16.30;99.90
52513;DHT22;38422;53.172;6.974;2022-07-10T01:16:28;16.30;99.90
52513;DHT22;38422;53.172;6.974;2022-07-10T01:18:55;16.20;99.90
52513;DHT22;38422;53.172;6.974;2022-07-10T01:21:29;16.20;99.90
52513;DHT22;38422;53.172;6.974;2022-07-10T01:23:55;16.20;99.90
52513;DHT22;38422;53.172;6.974;2022-07-10T01:26:21;16.10;99.90
52513;DHT22;38422;53.172;6.974;2022-07-10T01:28:53;16.10;99.90
52513;DHT22;38422;53.172;6.974;2022-07-10T01:31:20;16.10;99.90
52513;DHT22;38422;53.172;6.974;2022-07-10T01:33:49;16.10;99.90
52513;DHT22;38422;53.172;6.974;2022-07-10T01:36:16;16.00;99.90
52513;DHT22;38422;53.172;6.974;2022-07-10T01:38:42;16.00;99.90
52513;DHT22;38422;53.172;6.974;2022-07-10T01:41:07;16.00;99.90
52513;DHT22;38422;53.172;6.974;2022-07-10T01:43:35;16.10;99.90
52513;DHT22;38422;53.172;6.974;2022-07-10T01:46:01;16.10;99.90
52513;DHT22;38422;53.172;6.974;2022-07-10T01:48:27;16.10;99.90
52513;DHT22;38422;53.172;6.974;2022-07-10T01:50:52;16.00;99.90
52513;DHT22;38422;53.172;6.974;2022-07-10T01:53:18;16.10;99.90
52513;DHT22;38422;53.172;6.974;2022-07-10T01:55:44;16.10;99.90
52513;DHT22;38422;53.172;6.974;2022-07-10T01:58:09;16.10;99.90
52513;DHT22;38422;53.172;6.974;2022-07-10T02:00:35;16.10;99.90
52513;DHT22;38422;53.172;6.974;2022-07-10T02:03:01;16.10;99.90
52513;DHT22;38422;53.172;6.974;2022-07-10T02:05:45;16.00;99.90
52513;DHT22;38422;53.172;6.974;2022-07-10T02:08:10;16.00;99.90
52513;DHT22;38422;53.172;6.974;2022-07-10T02:10:36;16.00;99.90
52513;DHT22;38422;53.172;6.974;2022-07-10T02:13:01;16.00;99.90
52513;DHT22;38422;53.172;6.974;2022-07-10T02:15:27;16.00;99.90
52513;DHT22;38422;53.172;6.974;2022-07-10T02:17:52;15.90;99.90
52513;DHT22;38422;53.172;6.974;2022-07-10T02:20:18;15.90;99.90
52513;DHT22;38422;53.172;6.974;2022-07-10T02:22:44;15.90;99.90
52513;DHT22;38422;53.172;6.974;2022-07-10T02:25:09;15.90;99.90
52513;DHT22;38422;53.172;6.974;2022-07-10T02:27:35;15.90;99.90
52513;DHT22;38422;53.172;6.974;2022-07-10T02:30:01;15.90;99.90
52513;DHT22;38422;53.172;6.974;2022-07-10T02:32:26;15.90;99.90
52513;DHT22;38422;53.172;6.974;2022-07-10T02:34:52;15.90;99.90
52513;DHT22;38422;53.172;6.974;2022-07-10T02:37:17;15.90;99.90
52513;DHT22;38422;53.172;6.974;2022-07-10T02:39:43;15.90;99.90
52513;DHT22;38422;53.172;6.974;2022-07-10T02:42:09;15.90;99.90
52513;DHT22;38422;53.172;6.974;2022-07-10T02:44:34;15.80;99.90
52513;DHT22;38422;53.172;6.974;2022-07-10T02:47:00;15.80;99.90
52513;DHT22;38422;53.172;6.974;2022-07-10T02:49:26;15.80;99.90
52513;DHT22;38422;53.172;6.974;2022-07-10T02:51:51;15.80;99.90
52513;DHT22;38422;53.172;6.974;2022-07-10T02:54:17;15.80;99.90
52513;DHT22;38422;53.172;6.974;2022-07-10T02:56:43;15.80;99.90
52513;DHT22;38422;53.172;6.974;2022-07-10T02:59:08;15.70;99.90
52513;DHT22;38422;53.172;6.974;2022-07-10T03:01:34;15.70;99.90
52513;DHT22;38422;53.172;6.974;2022-07-10T03:04:00;15.60;99.90
52513;DHT22;38422;53.172;6.974;2022-07-10T03:06:27;15.60;99.90
52513;DHT22;38422;53.172;6.974;2022-07-10T03:08:52;15.60;99.90
52513;DHT22;38422;53.172;6.974;2022-07-10T03:11:18;15.60;99.90
52513;DHT22;38422;53.172;6.974;2022-07-10T03:13:44;15.50;99.90
52513;DHT22;38422;53.172;6.974;2022-07-10T03:16:09;15.50;99.90
52513;DHT22;38422;53.172;6.974;2022-07-10T03:18:35;15.40;99.90
52513;DHT22;38422;53.172;6.974;2022-07-10T03:21:01;15.40;99.90
52513;DHT22;38422;53.172;6.974;2022-07-10T03:23:26;15.40;99.90
52513;DHT22;38422;53.172;6.974;2022-07-10T03:25:52;15.30;99.90
52513;DHT22;38422;53.172;6.974;2022-07-10T03:28:18;15.30;99.90
52513;DHT22;38422;53.172;6.974;2022-07-10T03:30:43;15.30;99.90
52513;DHT22;38422;53.172;6.974;2022-07-10T03:33:09;15.20;99.90
52513;DHT22;38422;53.172;6.974;2022-07-10T03:35:34;15.20;99.90
52513;DHT22;38422;53.172;6.974;2022-07-10T03:38:00;15.20;99.90
52513;DHT22;38422;53.172;6.974;2022-07-10T03:40:26;15.10;99.90
52513;DHT22;38422;53.172;6.974;2022-07-10T03:42:52;15.20;99.90
52513;DHT22;38422;53.172;6.974;2022-07-10T03:45:18;15.20;99.90
52513;DHT22;38422;53.172;6.974;2022-07-10T03:47:44;15.10;99.90
52513;DHT22;38422;53.172;6.974;2022-07-10T03:50:09;15.10;99.90
52513;DHT22;38422;53.172;6.974;2022-07-10T03:52:35;15.10;99.90
52513;DHT22;38422;53.172;6.974;2022-07-10T03:55:01;15.10;99.90
52513;DHT22;38422;53.172;6.974;2022-07-10T03:57:27;15.10;99.90
52513;DHT22;38422;53.172;6.974;2022-07-10T04:00:11;15.10;99.90
52513;DHT22;38422;53.172;6.974;2022-07-10T04:02:37;15.10;99.90
52513;DHT22;38422;53.172;6.974;2022-07-10T04:05:07;15.10;99.90
52513;DHT22;38422;53.172;6.974;2022-07-10T04:07:34;15.20;99.90
52513;DHT22;38422;53.172;6.974;2022-07-10T04:10:00;15.20;99.90
52513;DHT22;38422;53.172;6.974;2022-07-10T04:12:25;15.20;99.90
52513;DHT22;38422;53.172;6.974;2022-07-10T04:14:51;15.20;99.90
52513;DHT22;38422;53.172;6.974;2022-07-10T04:17:19;15.20;99.90
52513;DHT22;38422;53.172;6.974;2022-07-10T04:19:45;15.20;99.90
52513;DHT22;38422;53.172;6.974;2022-07-10T04:22:11;15.20;99.90
52513;DHT22;38422;53.172;6.974;2022-07-10T04:24:38;15.20;99.90
52513;DHT22;38422;53.172;6.974;2022-07-10T04:27:04;15.20;99.90
52513;DHT22;38422;53.172;6.974;2022-07-10T04:29:29;15.20;99.90
52513;DHT22;38422;53.172;6.974;2022-07-10T04:31:55;15.30;99.90
52513;DHT22;38422;53.172;6.974;2022-07-10T04:34:21;15.30;99.90
52513;DHT22;38422;53.172;6.974;2022-07-10T04:36:46;15.30;99.90
52513;DHT22;38422;53.172;6.974;2022-07-10T04:39:12;15.30;99.90
52513;DHT22;38422;53.172;6.974;2022-07-10T04:41:38;15.40;99.90
52513;DHT22;38422;53.172;6.974;2022-07-10T04:44:04;15.50;99.90
52513;DHT22;38422;53.172;6.974;2022-07-10T04:46:29;15.60;99.90
52513;DHT22;38422;53.172;6.974;2022-07-10T04:48:55;15.60;99.90
52513;DHT22;38422;53.172;6.974;2022-07-10T04:51:21;15.70;99.90
52513;DHT22;38422;53.172;6.974;2022-07-10T04:53:48;15.80;99.90
52513;DHT22;38422;53.172;6.974;2022-07-10T04:56:13;15.90;99.90
52513;DHT22;38422;53.172;6.974;2022-07-10T04:58:39;16.00;99.90
52513;DHT22;38422;53.172;6.974;2022-07-10T05:01:05;16.00;99.90
52513;DHT22;38422;53.172;6.974;2022-07-10T05:03:30;16.10;99.90
52513;DHT22;38422;53.172;6.974;2022-07-10T05:05:56;16.10;99.90
52513;DHT22;38422;53.172;6.974;2022-07-10T05:08:21;16.20;99.90
52513;DHT22;38422;53.172;6.974;2022-07-10T05:10:47;16.20;99.90
52513;DHT22;38422;53.172;6.974;2022-07-10T05:13:13;16.30;99.90
52513;DHT22;38422;53.172;6.974;2022-07-10T05:15:39;16.30;99.90
52513;DHT22;38422;53.172;6.974;2022-07-10T05:18:04;16.30;99.90
52513;DHT22;38422;53.172;6.974;2022-07-10T05:20:30;16.40;99.90
52513;DHT22;38422;53.172;6.974;2022-07-10T05:22:56;16.40;99.90
52513;DHT22;38422;53.172;6.974;2022-07-10T05:25:22;16.40;99.90
52513;DHT22;38422;53.172;6.974;2022-07-10T05:27:48;16.40;99.90
52513;DHT22;38422;53.172;6.974;2022-07-10T05:30:13;16.40;99.90
52513;DHT22;38422;53.172;6.974;2022-07-10T05:32:46;16.40;99.90
52513;DHT22;38422;53.172;6.974;2022-07-10T05:35:13;16.40;99.90
52513;DHT22;38422;53.172;6.974;2022-07-10T05:37:39;16.40;99.90
52513;DHT22;38422;53.172;6.974;2022-07-10T05:40:05;16.30;99.90
52513;DHT22;38422;53.172;6.974;2022-07-10T05:42:31;16.40;99.90
52513;DHT22;38422;53.172;6.974;2022-07-10T05:44:56;16.40;99.90
52513;DHT22;38422;53.172;6.974;2022-07-10T05:47:22;16.40;99.90
52513;DHT22;38422;53.172;6.974;2022-07-10T05:49:48;16.40;99.90
52513;DHT22;38422;53.172;6.974;2022-07-10T05:52:13;16.40;99.90
52513;DHT22;38422;53.172;6.974;2022-07-10T05:54:39;16.40;99.90
52513;DHT22;38422;53.172;6.974;2022-07-10T05:57:05;16.40;99.90
52513;DHT22;38422;53.172;6.974;2022-07-10T05:59:33;16.40;99.90
52513;DHT22;38422;53.172;6.974;2022-07-10T06:02:03;16.40;99.90
52513;DHT22;38422;53.172;6.974;2022-07-10T06:04:29;16.40;99.90
52513;DHT22;38422;53.172;6.974;2022-07-10T06:06:54;16.50;99.90
52513;DHT22;38422;53.172;6.974;2022-07-10T06:09:20;16.50;99.90
52513;DHT22;38422;53.172;6.974;2022-07-10T06:11:45;16.50;99.90
52513;DHT22;38422;53.172;6.974;2022-07-10T06:14:13;16.50;99.90
52513;DHT22;38422;53.172;6.974;2022-07-10T06:16:39;16.50;99.90
52513;DHT22;38422;53.172;6.974;2022-07-10T06:19:04;16.50;99.90
52513;DHT22;38422;53.172;6.974;2022-07-10T06:21:30;16.50;99.90
52513;DHT22;38422;53.172;6.974;2022-07-10T06:23:56;16.50;99.90
52513;DHT22;38422;53.172;6.974;2022-07-10T06:26:22;16.50;99.90
52513;DHT22;38422;53.172;6.974;2022-07-10T06:28:47;16.50;99.90
52513;DHT22;38422;53.172;6.974;2022-07-10T06:31:13;16.50;99.90
52513;DHT22;38422;53.172;6.974;2022-07-10T06:33:39;16.50;99.90
52513;DHT22;38422;53.172;6.974;2022-07-10T06:36:05;16.50;99.90
52513;DHT22;38422;53.172;6.974;2022-07-10T06:38:31;16.50;99.90
52513;DHT22;38422;53.172;6.974;2022-07-10T06:40:57;16.50;99.90
52513;DHT22;38422;53.172;6.974;2022-07-10T06:43:23;16.50;99.90
52513;DHT22;38422;53.172;6.974;2022-07-10T06:45:48;16.50;99.90
52513;DHT22;38422;53.172;6.974;2022-07-10T06:48:14;16.60;99.90
52513;DHT22;38422;53.172;6.974;2022-07-10T06:50:41;16.60;99.90
52513;DHT22;38422;53.172;6.974;2022-07-10T06:53:07;16.60;99.90
52513;DHT22;38422;53.172;6.974;2022-07-10T06:55:32;16.70;99.90
52513;DHT22;38422;53.172;6.974;2022-07-10T06:57:59;16.70;99.90
52513;DHT22;38422;53.172;6.974;2022-07-10T07:00:25;16.80;99.90
52513;DHT22;38422;53.172;6.974;2022-07-10T07:02:51;16.90;99.90
52513;DHT22;38422;53.172;6.974;2022-07-10T07:05:17;17.00;99.90
52513;DHT22;38422;53.172;6.974;2022-07-10T07:07:42;17.10;99.90
52513;DHT22;38422;53.172;6.974;2022-07-10T07:10:09;17.10;99.90
52513;DHT22;38422;53.172;6.974;2022-07-10T07:12:35;17.10;99.90
52513;DHT22;38422;53.172;6.974;2022-07-10T07:15:00;17.10;99.90
52513;DHT22;38422;53.172;6.974;2022-07-10T07:17:26;17.10;99.90
52513;DHT22;38422;53.172;6.974;2022-07-10T07:20:00;17.10;99.90
52513;DHT22;38422;53.172;6.974;2022-07-10T07:22:44;17.10;99.90
52513;DHT22;38422;53.172;6.974;2022-07-10T07:25:29;17.10;99.90
52513;DHT22;38422;53.172;6.974;2022-07-10T07:27:55;17.00;99.90
52513;DHT22;38422;53.172;6.974;2022-07-10T07:30:20;17.00;99.90
52513;DHT22;38422;53.172;6.974;2022-07-10T07:32:46;17.00;99.90
52513;DHT22;38422;53.172;6.974;2022-07-10T07:35:14;17.00;99.90
52513;DHT22;38422;53.172;6.974;2022-07-10T07:37:45;17.00;99.90
52513;DHT22;38422;53.172;6.974;2022-07-10T07:40:13;17.10;99.90
52513;DHT22;38422;53.172;6.974;2022-07-10T07:42:41;17.20;99.90
52513;DHT22;38422;53.172;6.974;2022-07-10T07:45:08;17.30;99.90
52513;DHT22;38422;53.172;6.974;2022-07-10T07:47:47;17.40;99.90
52513;DHT22;38422;53.172;6.974;2022-07-10T07:50:14;17.50;99.90
52513;DHT22;38422;53.172;6.974;2022-07-10T07:52:40;17.50;99.90
52513;DHT22;38422;53.172;6.974;2022-07-10T07:55:07;17.50;99.90
52513;DHT22;38422;53.172;6.974;2022-07-10T07:57:33;17.60;99.90
52513;DHT22;38422;53.172;6.974;2022-07-10T07:59:58;17.60;99.90
52513;DHT22;38422;53.172;6.974;2022-07-10T08:02:24;17.70;99.90
52513;DHT22;38422;53.172;6.974;2022-07-10T08:04:49;17.80;99.90
52513;DHT22;38422;53.172;6.974;2022-07-10T08:07:15;18.00;99.90
52513;DHT22;38422;53.172;6.974;2022-07-10T08:09:41;18.10;99.90
52513;DHT22;38422;53.172;6.974;2022-07-10T08:12:07;18.20;99.90
52513;DHT22;38422;53.172;6.974;2022-07-10T08:14:32;18.10;99.90
52513;DHT22;38422;53.172;6.974;2022-07-10T08:16:58;18.00;99.90
52513;DHT22;38422;53.172;6.974;2022-07-10T08:19:25;17.90;99.90
52513;DHT22;38422;53.172;6.974;2022-07-10T08:21:51;17.90;99.90
52513;DHT22;38422;53.172;6.974;2022-07-10T08:24:16;17.80;99.90
52513;DHT22;38422;53.172;6.974;2022-07-10T08:26:42;17.70;99.90
52513;DHT22;38422;53.172;6.974;2022-07-10T08:29:07;17.80;99.90
52513;DHT22;38422;53.172;6.974;2022-07-10T08:31:33;17.80;99.90
52513;DHT22;38422;53.172;6.974;2022-07-10T08:33:59;17.80;99.90
52513;DHT22;38422;53.172;6.974;2022-07-10T08:36:25;17.70;99.90
52513;DHT22;38422;53.172;6.974;2022-07-10T08:38:52;17.70;99.90
52513;DHT22;38422;53.172;6.974;2022-07-10T08:41:25;17.70;99.90
52513;DHT22;38422;53.172;6.974;2022-07-10T08:43:51;17.70;99.90
52513;DHT22;38422;53.172;6.974;2022-07-10T08:46:17;17.80;99.90
52513;DHT22;38422;53.172;6.974;2022-07-10T08:48:47;17.80;99.90
52513;DHT22;38422;53.172;6.974;2022-07-10T08:51:22;17.80;99.90
52513;DHT22;38422;53.172;6.974;2022-07-10T08:53:49;17.70;99.90
52513;DHT22;38422;53.172;6.974;2022-07-10T08:56:16;17.60;99.90
52513;DHT22;38422;53.172;6.974;2022-07-10T08:58:42;17.50;99.90
52513;DHT22;38422;53.172;6.974;2022-07-10T09:01:09;17.50;99.90
52513;DHT22;38422;53.172;6.974;2022-07-10T09:03:35;17.50;99.90
52513;DHT22;38422;53.172;6.974;2022-07-10T09:06:04;17.50;99.90
52513;DHT22;38422;53.172;6.974;2022-07-10T09:08:30;17.50;99.90
52513;DHT22;38422;53.172;6.974;2022-07-10T09:11:17;17.60;99.90
52513;DHT22;38422;53.172;6.974;2022-07-10T09:13:51;17.70;99.90
52513;DHT22;38422;53.172;6.974;2022-07-10T09:16:25;17.80;99.90
52513;DHT22;38422;53.172;6.974;2022-07-10T09:18:51;18.10;99.90
52513;DHT22;38422;53.172;6.974;2022-07-10T09:21:17;18.30;99.90
52513;DHT22;38422;53.172;6.974;2022-07-10T09:23:42;18.50;99.90
52513;DHT22;38422;53.172;6.974;2022-07-10T09:26:08;18.70;99.90
52513;DHT22;38422;53.172;6.974;2022-07-10T09:28:34;18.80;99.90
52513;DHT22;38422;53.172;6.974;2022-07-10T09:30:59;18.90;99.90
52513;DHT22;38422;53.172;6.974;2022-07-10T09:33:27;18.90;99.90
52513;DHT22;38422;53.172;6.974;2022-07-10T09:41:25;18.90;99.90
52513;DHT22;38422;53.172;6.974;2022-07-10T09:43:56;18.90;99.90
52513;DHT22;38422;53.172;6.974;2022-07-10T09:46:26;18.90;99.90
52513;DHT22;38422;53.172;6.974;2022-07-10T09:49:12;18.90;99.90
52513;DHT22;38422;53.172;6.974;2022-07-10T09:51:39;18.90;99.90
52513;DHT22;38422;53.172;6.974;2022-07-10T09:54:07;18.90;99.90
52513;DHT22;38422;53.172;6.974;2022-07-10T09:56:42;18.70;99.90
52513;DHT22;38422;53.172;6.974;2022-07-10T09:59:17;18.60;99.90
52513;DHT22;38422;53.172;6.974;2022-07-10T10:01:45;18.50;99.90
52513;DHT22;38422;53.172;6.974;2022-07-10T10:04:12;18.40;99.90
52513;DHT22;38422;53.172;6.974;2022-07-10T10:06:40;18.50;99.90
52513;DHT22;38422;53.172;6.974;2022-07-10T10:09:34;18.40;99.90
52513;DHT22;38422;53.172;6.974;2022-07-10T10:12:35;18.40;99.90
52513;DHT22;38422;53.172;6.974;2022-07-10T10:14:53;18.30;99.90
52513;DHT22;38422;53.172;6.974;2022-07-10T10:17:19;18.30;99.90
52513;DHT22;38422;53.172;6.974;2022-07-10T10:19:47;18.20;99.90
52513;DHT22;38422;53.172;6.974;2022-07-10T10:22:33;18.20;99.90
52513;DHT22;38422;53.172;6.974;2022-07-10T10:25:01;18.20;99.90
52513;DHT22;38422;53.172;6.974;2022-07-10T10:27:27;18.20;99.90
52513;DHT22;38422;53.172;6.974;2022-07-10T10:29:53;18.30;99.90
52513;DHT22;38422;53.172;6.974;2022-07-10T10:32:19;18.40;99.90
52513;DHT22;38422;53.172;6.974;2022-07-10T10:34:49;18.40;99.90
52513;DHT22;38422;53.172;6.974;2022-07-10T10:39:54;18.40;99.90
52513;DHT22;38422;53.172;6.974;2022-07-10T10:42:42;18.30;99.90
52513;DHT22;38422;53.172;6.974;2022-07-10T10:45:31;18.10;99.90
52513;DHT22;38422;53.172;6.974;2022-07-10T10:48:14;18.20;99.90
52513;DHT22;38422;53.172;6.974;2022-07-10T10:50:53;18.30;99.90
52513;DHT22;38422;53.172;6.974;2022-07-10T10:53:20;18.50;99.90
52513;DHT22;38422;53.172;6.974;2022-07-10T10:58:42;19.10;99.90
52513;DHT22;38422;53.172;6.974;2022-07-10T11:06:47;19.40;99.90
52513;DHT22;38422;53.172;6.974;2022-07-10T11:09:42;19.30;99.90
52513;DHT22;38422;53.172;6.974;2022-07-10T11:12:10;19.30;99.90
52513;DHT22;38422;53.172;6.974;2022-07-10T11:14:38;19.30;99.90
52513;DHT22;38422;53.172;6.974;2022-07-10T11:17:05;19.40;99.90
52513;DHT22;38422;53.172;6.974;2022-07-10T11:19:33;19.30;99.90
52513;DHT22;38422;53.172;6.974;2022-07-10T11:24:50;19.20;99.90
52513;DHT22;38422;53.172;6.974;2022-07-10T11:29:45;18.90;99.90
52513;DHT22;38422;53.172;6.974;2022-07-10T11:32:16;18.70;99.90
52513;DHT22;38422;53.172;6.974;2022-07-10T11:34:41;18.60;99.90
52513;DHT22;38422;53.172;6.974;2022-07-10T11:37:14;18.50;99.90
52513;DHT22;38422;53.172;6.974;2022-07-10T11:39:40;18.50;99.90
52513;DHT22;38422;53.172;6.974;2022-07-10T11:42:06;18.60;99.90
52513;DHT22;38422;53.172;6.974;2022-07-10T11:44:32;18.70;99.90
52513;DHT22;38422;53.172;6.974;2022-07-10T11:46:58;18.70;99.90
52513;DHT22;38422;53.172;6.974;2022-07-10T11:49:25;18.80;99.90
52513;DHT22;38422;53.172;6.974;2022-07-10T11:51:52;18.80;99.90
52513;DHT22;38422;53.172;6.974;2022-07-10T11:54:19;18.80;99.90
52513;DHT22;38422;53.172;6.974;2022-07-10T11:56:49;18.80;99.90
52513;DHT22;38422;53.172;6.974;2022-07-10T11:59:18;18.70;99.90
52513;DHT22;38422;53.172;6.974;2022-07-10T12:01:49;18.60;99.90
52513;DHT22;38422;53.172;6.974;2022-07-10T12:04:17;18.50;99.90
52513;DHT22;38422;53.172;6.974;2022-07-10T12:06:47;18.50;99.90
52513;DHT22;38422;53.172;6.974;2022-07-10T12:09:15;18.40;99.90
52513;DHT22;38422;53.172;6.974;2022-07-10T12:11:42;18.30;99.90
52513;DHT22;38422;53.172;6.974;2022-07-10T12:14:09;18.30;99.90
52513;DHT22;38422;53.172;6.974;2022-07-10T12:16:35;18.50;99.90
52513;DHT22;38422;53.172;6.974;2022-07-10T12:19:02;18.60;99.90
52513;DHT22;38422;53.172;6.974;2022-07-10T12:21:28;18.70;99.90
52513;DHT22;38422;53.172;6.974;2022-07-10T12:23:55;18.80;99.90
52513;DHT22;38422;53.172;6.974;2022-07-10T12:26:22;18.90;99.90
52513;DHT22;38422;53.172;6.974;2022-07-10T12:28:55;18.90;99.90
52513;DHT22;38422;53.172;6.974;2022-07-10T12:31:26;19.00;99.90
52513;DHT22;38422;53.172;6.974;2022-07-10T12:33:55;19.10;99.90
52513;DHT22;38422;53.172;6.974;2022-07-10T12:36:23;19.20;99.90
52513;DHT22;38422;53.172;6.974;2022-07-10T12:38:56;19.30;99.90
52513;DHT22;38422;53.172;6.974;2022-07-10T12:41:24;19.20;99.90
52513;DHT22;38422;53.172;6.974;2022-07-10T12:43:51;19.20;99.90
52513;DHT22;38422;53.172;6.974;2022-07-10T12:46:21;19.20;99.90
52513;DHT22;38422;53.172;6.974;2022-07-10T12:49:09;19.20;99.90
52513;DHT22;38422;53.172;6.974;2022-07-10T12:51:45;19.20;99.90
52513;DHT22;38422;53.172;6.974;2022-07-10T12:56:58;19.30;99.90
52513;DHT22;38422;53.172;6.974;2022-07-10T12:59:23;19.40;99.90
52513;DHT22;38422;53.172;6.974;2022-07-10T13:01:49;19.50;99.90
52513;DHT22;38422;53.172;6.974;2022-07-10T13:04:26;19.60;99.90
52513;DHT22;38422;53.172;6.974;2022-07-10T13:06:52;19.60;99.90
52513;DHT22;38422;53.172;6.974;2022-07-10T13:09:25;19.50;99.90
52513;DHT22;38422;53.172;6.974;2022-07-10T13:11:53;19.40;99.90
52513;DHT22;38422;53.172;6.974;2022-07-10T13:14:20;19.40;99.90
52513;DHT22;38422;53.172;6.974;2022-07-10T13:16:46;19.30;99.90
52513;DHT22;38422;53.172;6.974;2022-07-10T13:19:12;19.20;99.90
52513;DHT22;38422;53.172;6.974;2022-07-10T13:21:38;19.20;99.90
52513;DHT22;38422;53.172;6.974;2022-07-10T13:24:04;19.30;99.90
52513;DHT22;38422;53.172;6.974;2022-07-10T13:26:30;19.40;99.90
52513;DHT22;38422;53.172;6.974;2022-07-10T13:28:57;19.60;99.90
52513;DHT22;38422;53.172;6.974;2022-07-10T13:31:23;19.70;99.90
52513;DHT22;38422;53.172;6.974;2022-07-10T13:33:48;19.80;99.90
52513;DHT22;38422;53.172;6.974;2022-07-10T13:36:14;19.80;99.90
52513;DHT22;38422;53.172;6.974;2022-07-10T13:38:40;19.80;99.90
52513;DHT22;38422;53.172;6.974;2022-07-10T13:41:07;19.70;99.90
52513;DHT22;38422;53.172;6.974;2022-07-10T13:43:33;19.60;99.90
52513;DHT22;38422;53.172;6.974;2022-07-10T13:46:01;19.50;99.90
52513;DHT22;38422;53.172;6.974;2022-07-10T13:48:28;19.40;99.90
52513;DHT22;38422;53.172;6.974;2022-07-10T13:50:54;19.30;99.90
52513;DHT22;38422;53.172;6.974;2022-07-10T13:53:20;19.20;99.90
52513;DHT22;38422;53.172;6.974;2022-07-10T13:55:46;19.10;99.90
52513;DHT22;38422;53.172;6.974;2022-07-10T13:58:13;19.00;99.90
52513;DHT22;38422;53.172;6.974;2022-07-10T14:00:39;18.90;99.90
52513;DHT22;38422;53.172;6.974;2022-07-10T14:03:05;18.90;99.90
52513;DHT22;38422;53.172;6.974;2022-07-10T14:05:33;19.00;99.90
52513;DHT22;38422;53.172;6.974;2022-07-10T14:07:59;19.10;99.90
52513;DHT22;38422;53.172;6.974;2022-07-10T14:10:25;19.20;99.90
52513;DHT22;38422;53.172;6.974;2022-07-10T14:12:55;19.20;99.90
52513;DHT22;38422;53.172;6.974;2022-07-10T14:15:21;19.20;99.90
52513;DHT22;38422;53.172;6.974;2022-07-10T14:17:46;19.10;99.90
52513;DHT22;38422;53.172;6.974;2022-07-10T14:20:12;19.00;99.90
52513;DHT22;38422;53.172;6.974;2022-07-10T14:22:38;19.00;99.90
52513;DHT22;38422;53.172;6.974;2022-07-10T14:25:05;19.00;99.90
52513;DHT22;38422;53.172;6.974;2022-07-10T14:27:31;19.20;99.90
52513;DHT22;38422;53.172;6.974;2022-07-10T14:30:00;19.20;99.90
52513;DHT22;38422;53.172;6.974;2022-07-10T14:32:26;19.30;99.90
52513;DHT22;38422;53.172;6.974;2022-07-10T14:34:52;19.30;99.90
52513;DHT22;38422;53.172;6.974;2022-07-10T14:37:17;19.30;99.90
52513;DHT22;38422;53.172;6.974;2022-07-10T14:39:43;19.30;99.90
52513;DHT22;38422;53.172;6.974;2022-07-10T14:42:11;19.30;99.90
52513;DHT22;38422;53.172;6.974;2022-07-10T14:44:38;19.20;99.90
52513;DHT22;38422;53.172;6.974;2022-07-10T14:47:03;19.20;99.90
52513;DHT22;38422;53.172;6.974;2022-07-10T14:49:29;19.10;99.90
52513;DHT22;38422;53.172;6.974;2022-07-10T14:51:55;19.00;99.90
52513;DHT22;38422;53.172;6.974;2022-07-10T14:54:21;18.90;99.90
52513;DHT22;38422;53.172;6.974;2022-07-10T14:56:46;18.90;99.90
52513;DHT22;38422;53.172;6.974;2022-07-10T14:59:12;18.90;99.90
52513;DHT22;38422;53.172;6.974;2022-07-10T15:01:38;19.00;99.90
52513;DHT22;38422;53.172;6.974;2022-07-10T15:04:03;19.10;99.90
52513;DHT22;38422;53.172;6.974;2022-07-10T15:06:29;19.20;99.90
52513;DHT22;38422;53.172;6.974;2022-07-10T15:08:55;19.40;99.90
52513;DHT22;38422;53.172;6.974;2022-07-10T15:11:20;19.50;99.90
52513;DHT22;38422;53.172;6.974;2022-07-10T15:13:49;19.60;99.90
52513;DHT22;38422;53.172;6.974;2022-07-10T15:16:17;19.60;99.90
52513;DHT22;38422;53.172;6.974;2022-07-10T15:18:42;19.70;99.90
52513;DHT22;38422;53.172;6.974;2022-07-10T15:21:08;19.80;99.90
52513;DHT22;38422;53.172;6.974;2022-07-10T15:23:34;19.90;99.90
52513;DHT22;38422;53.172;6.974;2022-07-10T15:26:01;19.90;99.90
52513;DHT22;38422;53.172;6.974;2022-07-10T15:28:26;19.90;99.90
52513;DHT22;38422;53.172;6.974;2022-07-10T15:30:52;20.00;99.90
52513;DHT22;38422;53.172;6.974;2022-07-10T15:33:18;20.10;99.90
52513;DHT22;38422;53.172;6.974;2022-07-10T15:35:43;20.10;99.90
52513;DHT22;38422;53.172;6.974;2022-07-10T15:38:09;20.10;99.90
52513;DHT22;38422;53.172;6.974;2022-07-10T15:40:35;20.00;99.90
52513;DHT22;38422;53.172;6.974;2022-07-10T15:43:00;20.00;99.90
52513;DHT22;38422;53.172;6.974;2022-07-10T15:45:26;20.00;99.90
52513;DHT22;38422;53.172;6.974;2022-07-10T15:47:52;20.00;99.90
52513;DHT22;38422;53.172;6.974;2022-07-10T15:50:18;20.00;99.90
52513;DHT22;38422;53.172;6.974;2022-07-10T15:52:45;20.00;99.90
52513;DHT22;38422;53.172;6.974;2022-07-10T15:55:12;20.00;99.90